Latest Weather Observations for McCluer Island

IDD60801

Issued at 11:31 pm CST Sunday 15 September 2019 (issued every 10 minutes, with the page automatically refreshed every 10 minutes)

About weather observations | Map of weather stations | Latest weather observations for NT | Other Formats
Station Details ID: 014274 Name: MCCLUER ISLAND Lat: -11.05 Lon: 132.98 Height: 1.4 m
Data from the previous 72 hours. | See also: Recent months at McCluer Island
Date/Time
CST
Temp
°C
App
Temp
°C
Dew
Point
°C
Rel
Hum
%
Delta-T
°C
Wind Press
QNH
hPa
Press
MSL
hPa
Rain since
9am
mm
Dir  Spd
km/h
Gust
km/h
Spd
kts
Gust
kts
15/11:30pm 25.2 23.7 20.9 77 2.8 NE 30 33 16 18 1014.7 - 0.0
15/11:00pm 25.3 23.8 21.0 77 2.8 NE 30 33 16 18 1014.7 - 0.0
15/10:30pm 25.7 24.6 21.8 79 2.6 NE 30 33 16 18 1014.7 - 0.0
15/10:00pm 25.4 24.1 20.6 75 3.1 NE 28 35 15 19 1014.6 - 0.0
15/09:30pm 25.4 24.1 20.6 75 3.1 NE 28 32 15 17 1014.6 - 0.0
15/09:00pm 25.7 25.3 21.6 78 2.7 NNE 26 32 14 17 1014.5 1014.5 0.0
15/08:30pm 25.5 24.9 21.2 77 2.8 NNE 26 30 14 16 1014.4 - 0.0
15/08:00pm 25.7 25.2 21.4 77 2.8 NE 26 30 14 16 1014.5 - 0.0
15/07:30pm 25.6 25.6 21.7 79 2.6 NE 24 28 13 15 1014.3 - 0.0
15/07:00pm 25.7 25.3 21.6 78 2.7 ENE 26 32 14 17 1014.3 - 0.0
15/06:30pm 25.5 24.2 21.4 78 2.7 ENE 30 33 16 18 1014.0 - 0.0
15/06:00pm 25.4 24.1 21.3 78 2.7 ENE 30 35 16 19 1013.7 1013.7 0.0
15/05:30pm 25.7 23.9 21.6 78 2.7 ENE 33 39 18 21 1013.6 - 0.0
15/05:00pm 25.7 23.8 21.4 77 2.8 ENE 33 39 18 21 1013.3 - 0.0
15/04:30pm 26.0 23.5 21.7 77 2.9 E 37 43 20 23 1013.2 - 0.0
15/04:00pm 26.1 23.5 21.5 76 3.1 E 37 43 20 23 1013.1 - 0.0
15/03:30pm 26.2 23.1 21.2 74 3.3 E 39 44 21 24 1013.1 - 0.0
15/03:00pm 26.2 23.0 21.0 73 3.4 E 39 43 21 23 1013.0 1013.0 0.0
15/02:30pm 25.8 22.9 20.8 74 3.3 E 37 43 20 23 1013.3 - 0.0
15/02:00pm 25.9 23.2 20.5 72 3.5 E 35 41 19 22 1013.6 - 0.0
15/01:30pm 25.6 22.8 20.2 72 3.5 E 35 41 19 22 1013.9 - 0.0
15/01:00pm 25.7 22.4 20.0 71 3.7 E 37 43 20 23 1014.3 - 0.0
15/12:30pm 25.4 22.8 19.8 71 3.6 E 33 39 18 21 1014.9 - 0.0
15/12:00pm 25.9 23.1 20.2 71 3.7 E 35 39 19 21 1015.1 1015.1 0.0
15/11:30am 25.1 22.1 19.0 69 3.9 E 33 39 18 21 1015.5 - 0.0
15/11:00am 25.4 22.2 19.5 70 3.8 E 35 41 19 22 1015.8 - 0.0
15/10:30am 24.8 20.9 18.7 69 3.9 ENE 37 44 20 24 1016.0 - 0.0
15/10:00am 24.6 20.9 18.3 68 4.0 ENE 35 43 19 23 1016.1 - 0.0
15/09:30am 24.3 20.5 18.0 68 4.0 ENE 35 43 19 23 1016.2 - 0.0
15/09:00am 24.0 20.5 18.0 69 3.8 ENE 33 43 18 23 1016.3 1016.3 0.0
15/08:30am 23.7 19.8 17.0 66 4.1 ENE 33 39 18 21 1016.1 - 0.0
15/08:00am 23.9 19.2 14.9 57 5.4 E 33 39 18 21 1015.9 - 0.0
15/07:30am 23.7 20.4 14.9 57 5.2 E 26 35 14 19 1015.8 - 0.0
15/07:00am 23.0 18.7 15.8 64 4.3 E 33 41 18 22 1015.7 - 0.0
15/06:30am 22.9 18.0 15.2 62 4.6 E 35 44 19 24 1015.3 - 0.0
15/06:00am 23.4 19.2 16.2 64 4.4 E 33 43 18 23 1015.0 1015.0 0.0
15/05:30am 23.1 18.2 15.4 62 4.6 E 35 41 19 22 1014.8 - 0.0
15/05:00am 23.7 19.1 16.0 62 4.7 E 35 43 19 23 1014.6 - 0.0
15/04:30am 23.9 18.5 15.1 58 5.3 E 37 44 20 24 1014.7 - 0.0
15/04:00am 24.0 18.0 14.4 55 5.7 E 39 44 21 24 1014.4 - 0.0
15/03:30am 24.3 18.1 16.0 60 5.0 E 43 48 23 26 1014.3 - 0.0
15/03:00am 24.4 17.8 15.3 57 5.5 E 44 54 24 29 1014.5 1014.5 0.0
15/02:30am 24.2 19.0 17.4 65 4.2 E 41 50 22 27 1014.6 - 0.0
15/02:00am 24.6 19.2 18.3 68 4.0 E 44 52 24 28 1014.6 - 0.0
15/01:30am 24.7 19.6 19.1 71 3.6 E 44 50 24 27 1014.7 - 0.0
15/01:00am 24.8 20.1 18.7 69 3.9 E 41 48 22 26 1015.0 - 0.0
15/12:30am 25.1 21.6 19.7 72 3.5 ENE 37 44 20 24 1015.0 - 0.0
15/12:00am 25.3 21.6 19.9 72 3.5 ENE 39 46 21 25 1015.2 1015.2 0.0
 
Date/Time
CST
Temp
°C
App
Temp
°C
Dew
Point
°C
Rel
Hum
%
Delta-T
°C
Wind Press
QNH
hPa
Press
MSL
hPa
Rain since
9am
mm
Dir  Spd
km/h
Gust
km/h
Spd
kts
Gust
kts
14/11:30pm 25.3 22.6 20.5 75 3.1 ENE 35 43 19 23 1015.4 - 0.0
14/11:00pm 25.2 23.3 20.9 77 2.8 ENE 32 39 17 21 1015.3 - 0.0
14/10:30pm 25.4 23.7 21.3 78 2.7 NE 32 35 17 19 1015.3 - 0.0
14/10:00pm 25.4 23.6 21.1 77 2.8 NE 32 35 17 19 1015.2 - 0.0
14/09:30pm 25.5 24.1 21.2 77 2.8 ENE 30 37 16 20 1015.1 - 0.0
14/09:00pm 25.9 24.4 22.0 79 2.6 NE 33 39 18 21 1014.8 1014.8 0.0
14/08:30pm 25.7 23.8 21.4 77 2.8 NE 33 41 18 22 1014.5 - 0.0
14/08:00pm 25.5 23.6 21.0 76 3.0 NE 32 37 17 20 1014.2 - 0.0
14/07:30pm 25.5 23.6 21.0 76 3.0 NE 32 35 17 19 1013.9 - 0.0
14/07:00pm 25.4 24.0 21.1 77 2.8 NNE 30 33 16 18 1013.7 - 0.0
14/06:30pm 25.4 23.9 20.9 76 3.0 NE 30 33 16 18 1013.6 - 0.0
14/06:00pm 25.4 23.6 21.1 77 2.8 NNE 32 35 17 19 1013.3 1013.3 0.0
14/05:30pm 25.5 23.7 21.2 77 2.8 NNE 32 35 17 19 1013.3 - 0.0
14/05:00pm 25.5 22.9 20.7 75 3.1 NE 35 39 19 21 1013.5 - 0.0
14/04:30pm 25.5 23.1 20.3 73 3.4 ENE 33 39 18 21 1013.7 - 0.0
14/04:00pm 25.5 23.8 20.5 74 3.3 ENE 30 35 16 19 1013.7 - 0.0
14/03:30pm 25.9 23.4 20.9 74 3.3 ENE 35 39 19 21 1013.7 - 0.0
14/03:00pm 26.0 23.4 20.6 72 3.5 ENE 35 39 19 21 1014.0 1014.0 0.0
14/02:30pm 26.1 23.0 19.7 68 4.1 ENE 35 41 19 22 1014.1 - 0.0
14/02:00pm 26.2 23.3 19.3 65 4.4 ENE 33 39 18 21 1014.4 - 0.0
14/01:30pm 26.5 23.8 19.6 66 4.5 ENE 33 39 18 21 1014.7 - 0.0
14/01:00pm 26.5 23.3 19.4 65 4.6 ENE 35 41 19 22 1015.3 - 0.0
14/12:30pm 26.3 22.0 18.7 63 4.9 E 39 46 21 25 1015.9 - 0.0
14/12:00pm 26.0 22.2 18.9 65 4.5 E 37 41 20 22 1016.4 1016.4 0.0
14/11:30am 25.8 22.2 18.5 64 4.6 E 35 41 19 22 1016.8 - 0.0
14/11:00am 25.7 21.9 18.1 63 4.8 E 35 41 19 22 1016.8 - 0.0
14/10:30am 26.5 22.8 17.0 56 5.9 E 32 39 17 21 1017.0 - 0.0
14/10:00am 27.2 22.3 14.2 44 7.8 E 33 43 18 23 1017.1 - 0.0
14/09:30am 26.2 21.8 14.0 47 7.2 E 30 39 16 21 1017.1 - 0.0
14/09:00am 26.8 22.9 14.5 46 7.4 E 28 35 15 19 1017.1 1017.1 0.0
14/08:30am 25.8 23.3 16.1 55 5.9 ESE 24 33 13 18 1017.1 - 0.0
14/08:00am 24.9 23.3 17.4 63 4.7 ESE 22 30 12 16 1016.9 - 0.0
14/07:30am 23.9 23.1 18.1 70 3.6 E 19 28 10 15 1016.5 - 0.0
14/07:00am 23.2 21.8 17.9 72 3.3 ESE 22 33 12 18 1016.4 - 0.0
14/06:30am 23.4 20.3 18.5 74 3.1 E 32 37 17 20 1016.1 - 0.0
14/06:00am 23.3 19.6 17.5 70 3.6 E 33 39 18 21 1015.9 1015.9 0.0
14/05:30am 23.5 20.1 18.2 72 3.3 E 33 39 18 21 1015.7 - 0.0
14/05:00am 23.7 19.4 18.6 73 3.2 E 39 46 21 25 1015.5 - 0.0
14/04:30am 24.0 19.3 18.6 72 3.4 E 41 48 22 26 1015.2 - 0.0
14/04:00am 24.0 19.0 18.0 69 3.8 E 41 52 22 28 1014.9 - 0.0
14/03:30am 24.3 19.6 19.4 74 3.1 E 43 52 23 28 1014.7 - 0.0
14/03:00am 24.3 20.5 19.8 76 2.9 E 39 46 21 25 1014.9 1014.9 0.0
14/02:30am 24.5 20.0 20.0 76 2.9 E 43 52 23 28 1014.9 - 0.0
14/02:00am 24.6 20.3 20.3 77 2.8 E 43 50 23 27 1015.1 - 0.0
14/01:30am 24.8 20.2 20.1 75 3.0 ENE 44 56 24 30 1015.4 - 0.0
14/01:00am 25.1 21.0 20.8 77 2.8 ENE 43 52 23 28 1015.5 - 0.0
14/12:30am 25.1 21.0 20.8 77 2.8 ENE 43 54 23 29 1015.8 - 0.0
14/12:00am 25.0 21.4 20.9 78 2.7 ENE 41 48 22 26 1015.9 1015.9 0.0
 
Date/Time
CST
Temp
°C
App
Temp
°C
Dew
Point
°C
Rel
Hum
%
Delta-T
°C
Wind Press
QNH
hPa
Press
MSL
hPa
Rain since
9am
mm
Dir  Spd
km/h
Gust
km/h
Spd
kts
Gust
kts
13/11:30pm 25.2 21.2 20.9 77 2.8 ENE 43 52 23 28 1015.7 - 0.0
13/11:00pm 25.1 20.8 20.4 75 3.1 ENE 43 48 23 26 1015.7 - 0.0
13/10:30pm 25.3 21.8 20.3 74 3.3 NE 39 48 21 26 1015.6 - 0.0
13/10:00pm 25.5 23.4 21.6 79 2.6 NE 35 43 19 23 1015.7 - 0.0
13/09:30pm 25.3 22.6 20.5 75 3.1 NE 35 43 19 23 1015.6 - 0.0
13/09:00pm 25.6 22.8 21.1 76 3.0 NE 37 44 20 24 1015.5 1015.5 0.0
13/08:30pm 25.5 23.1 21.0 76 3.0 NE 35 41 19 22 1015.2 - 0.0
13/08:00pm 25.6 23.0 21.5 78 2.7 NE 37 43 20 23 1014.9 - 0.0
13/07:30pm 25.5 23.3 21.4 78 2.7 NE 35 41 19 22 1014.6 - 0.0
13/07:00pm 25.6 23.7 21.3 77 2.8 NE 33 39 18 21 1014.2 - 0.0
13/06:30pm 25.6 23.8 21.1 76 3.0 NE 32 39 17 21 1013.9 - 0.0
13/06:00pm 25.8 23.7 21.0 75 3.2 NE 33 39 18 21 1013.7 1013.7 0.0
13/05:30pm 25.4 23.0 20.0 72 3.5 NE 32 37 17 20 1013.6 - 0.0
13/05:00pm 25.6 23.1 20.2 72 3.5 NE 33 39 18 21 1013.5 - 0.0
13/04:30pm 26.0 23.5 20.1 70 3.8 ENE 33 41 18 22 1013.6 - 0.0
13/04:00pm 26.1 23.7 20.0 69 4.0 ENE 32 37 17 20 1013.6 - 0.0
13/03:30pm 26.3 23.0 19.2 65 4.6 ENE 35 43 19 23 1013.8 - 0.0
13/03:00pm 26.7 24.2 20.1 67 4.3 ENE 33 39 18 21 1014.1 1014.1 0.0
13/02:30pm 26.5 24.2 20.1 68 4.2 E 32 35 17 19 1014.4 - 0.0
13/02:00pm 26.3 23.4 18.9 63 4.7 E 32 35 17 19 1014.9 - 0.0
13/01:30pm 26.4 22.9 18.8 63 4.9 E 35 39 19 21 1015.2 - 0.0
13/01:00pm 27.2 23.1 18.2 58 5.7 E 37 43 20 23 1015.7 - 0.0
13/12:30pm 26.3 21.8 17.4 58 5.6 E 37 43 20 23 1016.2 - 0.0
13/12:00pm 26.7 21.8 16.3 53 6.4 E 37 43 20 23 1016.8 1016.8 0.0
13/11:30am 26.1 21.4 16.9 57 5.7 E 37 43 20 23 1017.2 - 0.0
13/11:00am 25.6 21.5 16.4 56 5.7 E 33 41 18 22 1017.4 - 0.0
13/10:30am 25.3 21.3 16.2 57 5.6 E 32 41 17 22 1017.6 - 0.0
13/10:00am 26.1 22.0 14.9 50 6.7 E 30 41 16 22 1017.9 - 0.0
13/09:30am 26.4 21.7 14.2 47 7.3 E 32 41 17 22 1017.9 - 0.0
13/09:00am 26.1 21.8 15.5 52 6.4 E 32 39 17 21 1017.7 1017.7 0.0
13/08:30am 26.1 22.0 14.9 50 6.7 E 30 39 16 21 1017.7 - 0.0
13/08:00am 24.8 21.6 16.2 58 5.3 E 28 35 15 19 1017.5 - 0.0
13/07:30am 24.1 20.4 15.1 57 5.4 E 28 35 15 19 1017.1 - 0.0
13/07:00am 23.4 20.9 16.2 64 4.4 E 24 33 13 18 1016.8 - 0.0
13/06:30am 23.3 19.8 15.6 62 4.6 E 28 33 15 18 1016.5 - 0.0
13/06:00am 23.5 20.2 16.1 63 4.5 E 28 35 15 19 1016.2 1016.2 0.0
13/05:30am 23.6 19.9 15.1 59 5.1 E 28 35 15 19 1016.0 - 0.0
13/05:00am 23.8 19.6 15.6 60 4.9 E 32 41 17 22 1015.9 - 0.0
13/04:30am 23.9 19.3 15.1 58 5.3 E 33 43 18 23 1015.6 - 0.0
13/04:00am 23.4 18.6 15.5 61 4.7 E 35 46 19 25 1015.6 - 0.0
13/03:30am 23.9 18.5 15.9 61 4.8 E 39 50 21 27 1015.8 - 0.0
13/03:00am 24.0 18.4 16.5 63 4.6 E 41 50 22 27 1015.8 1015.8 0.0
13/02:30am 24.6 17.7 15.5 57 5.5 E 46 56 25 30 1015.7 - 0.0
13/02:00am 24.5 18.2 15.7 58 5.3 E 43 56 23 30 1015.7 - 0.0
13/01:30am 24.7 17.8 15.6 57 5.5 E 46 56 25 30 1015.7 - 0.0
13/01:00am 24.7 18.1 16.4 60 5.1 E 46 56 25 30 1015.9 - 0.0
13/12:30am 24.8 19.6 18.7 69 3.9 E 44 56 24 30 1016.1 - 0.0
13/12:00am 24.6 19.3 18.5 69 3.9 ENE 44 52 24 28 1016.3 1016.3 0.0

Other formats

Comma delimited format used in spreadsheet applications
http://www.bom.gov.au/fwo/IDD60801/IDD60801.94135.axf

JavaScript Object Notation format (JSON) in row-major order
http://www.bom.gov.au/fwo/IDD60801/IDD60801.94135.json

Data quality

Most of these data are generated automatically and are frequently updated. Quality checks on data are not normally performed. It is possible for incorrect values to appear. Refer to information at About Latest Weather Observations and please check the disclaimer before using these data.